New Meadows, Idaho
Current Conditions -  °F | °C
As of 1:51 AM on Saturday 22 Nov 2014 (Local Time) from KMYL Reporting Station
Light Snow Light Snow  
Wind Chill: 25°   Ceiling: 1500
Heat Index: 33°   Visibility: 3mi
Dew Point: 32°   Wind: 10mph
Humidity: 96%   Direction: 130°SE
Pressure: 29.65"   Gusts: NA
Location:  44.97°N, 116.28°W
Report Text: KMYL 220851Z AUTO 13009KT 3SM -SN BR FEW010 BKN015 OVC023 01/00 A2965 RMK AO2 SLP056 P0010 60017 T00060000 58025
Loading
Personal Weather Stations






























Interactive Weather Map New forecast layout! Learn more

10-Day Weather Forecast

Advertisements
Track Severe Weather on mobile